sensor_id;sensor_type;location;lat;lon;timestamp;temperature;humidity
20155;DHT22;10238;49.556;10.956;2023-11-21T00:02:44;7.20;99.90
20155;DHT22;10238;49.556;10.956;2023-11-21T00:05:32;7.20;99.90
20155;DHT22;10238;49.556;10.956;2023-11-21T00:08:21;7.20;99.90
20155;DHT22;10238;49.556;10.956;2023-11-21T00:11:10;7.20;99.90
20155;DHT22;10238;49.556;10.956;2023-11-21T00:13:57;7.20;99.90
20155;DHT22;10238;49.556;10.956;2023-11-21T00:16:45;7.20;99.90
20155;DHT22;10238;49.556;10.956;2023-11-21T00:19:32;7.20;99.90
20155;DHT22;10238;49.556;10.956;2023-11-21T00:22:21;7.20;99.90
20155;DHT22;10238;49.556;10.956;2023-11-21T00:25:09;7.20;99.90
20155;DHT22;10238;49.556;10.956;2023-11-21T00:27:58;7.20;99.90
20155;DHT22;10238;49.556;10.956;2023-11-21T00:30:47;7.20;99.90
20155;DHT22;10238;49.556;10.956;2023-11-21T00:33:35;7.30;99.90
20155;DHT22;10238;49.556;10.956;2023-11-21T00:36:22;7.20;99.90
20155;DHT22;10238;49.556;10.956;2023-11-21T00:39:12;7.30;99.90
20155;DHT22;10238;49.556;10.956;2023-11-21T00:41:59;7.20;99.90
20155;DHT22;10238;49.556;10.956;2023-11-21T00:44:48;7.20;99.90
20155;DHT22;10238;49.556;10.956;2023-11-21T00:47:36;7.20;99.90
20155;DHT22;10238;49.556;10.956;2023-11-21T00:50:25;7.20;99.90
20155;DHT22;10238;49.556;10.956;2023-11-21T00:53:13;7.20;99.90
20155;DHT22;10238;49.556;10.956;2023-11-21T00:56:01;7.20;99.90
20155;DHT22;10238;49.556;10.956;2023-11-21T00:58:51;7.20;99.90
20155;DHT22;10238;49.556;10.956;2023-11-21T01:01:41;7.20;99.90
20155;DHT22;10238;49.556;10.956;2023-11-21T01:04:28;7.20;99.90
20155;DHT22;10238;49.556;10.956;2023-11-21T01:07:18;7.20;99.90
20155;DHT22;10238;49.556;10.956;2023-11-21T01:10:08;7.20;99.90
20155;DHT22;10238;49.556;10.956;2023-11-21T01:12:56;7.20;99.90
20155;DHT22;10238;49.556;10.956;2023-11-21T01:15:44;7.20;99.90
20155;DHT22;10238;49.556;10.956;2023-11-21T01:18:34;7.20;99.90
20155;DHT22;10238;49.556;10.956;2023-11-21T01:21:21;7.20;99.90
20155;DHT22;10238;49.556;10.956;2023-11-21T01:24:09;7.20;99.90
20155;DHT22;10238;49.556;10.956;2023-11-21T01:26:57;7.20;99.90
20155;DHT22;10238;49.556;10.956;2023-11-21T01:29:44;7.20;99.90
20155;DHT22;10238;49.556;10.956;2023-11-21T01:32:32;7.30;99.90
20155;DHT22;10238;49.556;10.956;2023-11-21T01:35:21;7.20;99.90
20155;DHT22;10238;49.556;10.956;2023-11-21T01:38:09;7.20;99.90
20155;DHT22;10238;49.556;10.956;2023-11-21T01:40:56;7.20;99.90
20155;DHT22;10238;49.556;10.956;2023-11-21T01:43:46;7.30;99.90
20155;DHT22;10238;49.556;10.956;2023-11-21T01:46:34;7.20;99.90
20155;DHT22;10238;49.556;10.956;2023-11-21T01:49:23;7.20;99.90
20155;DHT22;10238;49.556;10.956;2023-11-21T01:52:13;7.20;99.90
20155;DHT22;10238;49.556;10.956;2023-11-21T01:55:01;7.20;99.90
20155;DHT22;10238;49.556;10.956;2023-11-21T01:57:50;7.20;99.90
20155;DHT22;10238;49.556;10.956;2023-11-21T02:00:38;7.20;99.90
20155;DHT22;10238;49.556;10.956;2023-11-21T02:03:25;7.10;99.90
20155;DHT22;10238;49.556;10.956;2023-11-21T02:06:13;7.10;99.90
20155;DHT22;10238;49.556;10.956;2023-11-21T02:09:02;7.10;99.90
20155;DHT22;10238;49.556;10.956;2023-11-21T02:11:51;7.10;99.90
20155;DHT22;10238;49.556;10.956;2023-11-21T02:14:43;7.10;99.90
20155;DHT22;10238;49.556;10.956;2023-11-21T02:17:32;7.10;99.90
20155;DHT22;10238;49.556;10.956;2023-11-21T02:20:20;7.10;99.90
20155;DHT22;10238;49.556;10.956;2023-11-21T02:23:12;7.10;99.90
20155;DHT22;10238;49.556;10.956;2023-11-21T02:26:01;7.10;99.90
20155;DHT22;10238;49.556;10.956;2023-11-21T02:28:50;7.10;99.90
20155;DHT22;10238;49.556;10.956;2023-11-21T02:31:39;7.10;99.90
20155;DHT22;10238;49.556;10.956;2023-11-21T02:34:34;7.10;99.90
20155;DHT22;10238;49.556;10.956;2023-11-21T02:37:21;7.10;99.90
20155;DHT22;10238;49.556;10.956;2023-11-21T02:40:11;7.10;99.90
20155;DHT22;10238;49.556;10.956;2023-11-21T02:42:59;7.10;99.90
20155;DHT22;10238;49.556;10.956;2023-11-21T02:45:47;7.10;99.90
20155;DHT22;10238;49.556;10.956;2023-11-21T02:48:35;7.10;99.90
20155;DHT22;10238;49.556;10.956;2023-11-21T02:51:22;7.10;99.90
20155;DHT22;10238;49.556;10.956;2023-11-21T02:54:10;7.10;99.90
20155;DHT22;10238;49.556;10.956;2023-11-21T02:57:00;7.10;99.90
20155;DHT22;10238;49.556;10.956;2023-11-21T02:59:48;7.10;99.90
20155;DHT22;10238;49.556;10.956;2023-11-21T03:02:36;7.10;99.90
20155;DHT22;10238;49.556;10.956;2023-11-21T03:05:25;7.10;99.90
20155;DHT22;10238;49.556;10.956;2023-11-21T03:08:15;7.10;99.90
20155;DHT22;10238;49.556;10.956;2023-11-21T03:11:02;7.10;99.90
20155;DHT22;10238;49.556;10.956;2023-11-21T03:13:51;7.10;99.90
20155;DHT22;10238;49.556;10.956;2023-11-21T03:16:39;7.10;99.90
20155;DHT22;10238;49.556;10.956;2023-11-21T03:19:27;7.10;99.90
20155;DHT22;10238;49.556;10.956;2023-11-21T03:22:14;7.10;99.90
20155;DHT22;10238;49.556;10.956;2023-11-21T03:25:02;7.10;99.90
20155;DHT22;10238;49.556;10.956;2023-11-21T03:27:51;7.10;99.90
20155;DHT22;10238;49.556;10.956;2023-11-21T03:30:40;7.10;99.90
20155;DHT22;10238;49.556;10.956;2023-11-21T03:33:28;7.10;99.90
20155;DHT22;10238;49.556;10.956;2023-11-21T03:36:16;7.10;99.90
20155;DHT22;10238;49.556;10.956;2023-11-21T03:39:04;7.10;99.90
20155;DHT22;10238;49.556;10.956;2023-11-21T03:41:52;7.10;99.90
20155;DHT22;10238;49.556;10.956;2023-11-21T03:44:40;7.10;99.90
20155;DHT22;10238;49.556;10.956;2023-11-21T03:47:30;7.10;99.90
20155;DHT22;10238;49.556;10.956;2023-11-21T03:50:18;7.10;99.90
20155;DHT22;10238;49.556;10.956;2023-11-21T03:53:05;7.10;99.90
20155;DHT22;10238;49.556;10.956;2023-11-21T03:55:53;7.10;99.90
20155;DHT22;10238;49.556;10.956;2023-11-21T03:58:40;7.10;99.90
20155;DHT22;10238;49.556;10.956;2023-11-21T04:01:28;7.10;99.90
20155;DHT22;10238;49.556;10.956;2023-11-21T04:04:18;7.10;99.90
20155;DHT22;10238;49.556;10.956;2023-11-21T04:07:06;7.10;99.90
20155;DHT22;10238;49.556;10.956;2023-11-21T04:09:54;7.10;99.90
20155;DHT22;10238;49.556;10.956;2023-11-21T04:12:42;7.10;99.90
20155;DHT22;10238;49.556;10.956;2023-11-21T04:15:29;7.10;99.90
20155;DHT22;10238;49.556;10.956;2023-11-21T04:18:17;7.10;99.90
20155;DHT22;10238;49.556;10.956;2023-11-21T04:21:06;7.10;99.90
20155;DHT22;10238;49.556;10.956;2023-11-21T04:23:54;7.10;99.90
20155;DHT22;10238;49.556;10.956;2023-11-21T04:26:42;7.10;99.90
20155;DHT22;10238;49.556;10.956;2023-11-21T04:29:30;7.10;99.90
20155;DHT22;10238;49.556;10.956;2023-11-21T04:32:18;7.10;99.90
20155;DHT22;10238;49.556;10.956;2023-11-21T04:35:06;7.10;99.90
20155;DHT22;10238;49.556;10.956;2023-11-21T04:37:56;7.10;99.90
20155;DHT22;10238;49.556;10.956;2023-11-21T04:40:44;7.10;99.90
20155;DHT22;10238;49.556;10.956;2023-11-21T04:43:33;7.10;99.90
20155;DHT22;10238;49.556;10.956;2023-11-21T04:46:21;7.10;99.90
20155;DHT22;10238;49.556;10.956;2023-11-21T04:49:09;7.10;99.90
20155;DHT22;10238;49.556;10.956;2023-11-21T04:51:57;7.10;99.90
20155;DHT22;10238;49.556;10.956;2023-11-21T04:54:46;7.10;99.90
20155;DHT22;10238;49.556;10.956;2023-11-21T04:57:34;7.10;99.90
20155;DHT22;10238;49.556;10.956;2023-11-21T05:00:21;7.10;99.90
20155;DHT22;10238;49.556;10.956;2023-11-21T05:03:10;7.10;99.90
20155;DHT22;10238;49.556;10.956;2023-11-21T05:05:59;7.00;99.90
20155;DHT22;10238;49.556;10.956;2023-11-21T05:08:47;7.10;99.90
20155;DHT22;10238;49.556;10.956;2023-11-21T05:11:36;7.10;99.90
20155;DHT22;10238;49.556;10.956;2023-11-21T05:14:24;7.10;99.90
20155;DHT22;10238;49.556;10.956;2023-11-21T05:17:12;7.10;99.90
20155;DHT22;10238;49.556;10.956;2023-11-21T05:20:00;7.10;99.90
20155;DHT22;10238;49.556;10.956;2023-11-21T05:22:50;7.10;99.90
20155;DHT22;10238;49.556;10.956;2023-11-21T05:25:38;7.10;99.90
20155;DHT22;10238;49.556;10.956;2023-11-21T05:28:29;7.10;99.90
20155;DHT22;10238;49.556;10.956;2023-11-21T05:31:17;7.00;99.90
20155;DHT22;10238;49.556;10.956;2023-11-21T05:34:05;7.00;99.90
20155;DHT22;10238;49.556;10.956;2023-11-21T05:36:52;7.00;99.90
20155;DHT22;10238;49.556;10.956;2023-11-21T05:39:40;7.00;99.90
20155;DHT22;10238;49.556;10.956;2023-11-21T05:42:27;7.00;99.90
20155;DHT22;10238;49.556;10.956;2023-11-21T05:45:18;7.00;99.90
20155;DHT22;10238;49.556;10.956;2023-11-21T05:48:07;7.10;99.90
20155;DHT22;10238;49.556;10.956;2023-11-21T05:50:54;7.10;99.90
20155;DHT22;10238;49.556;10.956;2023-11-21T05:53:42;7.00;99.90
20155;DHT22;10238;49.556;10.956;2023-11-21T05:56:29;7.00;99.90
20155;DHT22;10238;49.556;10.956;2023-11-21T05:59:17;7.00;99.90
20155;DHT22;10238;49.556;10.956;2023-11-21T06:02:09;7.10;99.90
20155;DHT22;10238;49.556;10.956;2023-11-21T06:04:57;7.00;99.90
20155;DHT22;10238;49.556;10.956;2023-11-21T06:07:45;7.00;99.90
20155;DHT22;10238;49.556;10.956;2023-11-21T06:10:33;7.00;99.90
20155;DHT22;10238;49.556;10.956;2023-11-21T06:13:20;7.10;99.90
20155;DHT22;10238;49.556;10.956;2023-11-21T06:16:10;7.00;99.90
20155;DHT22;10238;49.556;10.956;2023-11-21T06:19:02;7.00;99.90
20155;DHT22;10238;49.556;10.956;2023-11-21T06:21:49;7.00;99.90
20155;DHT22;10238;49.556;10.956;2023-11-21T06:24:37;7.00;99.90
20155;DHT22;10238;49.556;10.956;2023-11-21T06:27:25;7.00;99.90
20155;DHT22;10238;49.556;10.956;2023-11-21T06:30:13;7.00;99.90
20155;DHT22;10238;49.556;10.956;2023-11-21T06:33:02;7.00;99.90
20155;DHT22;10238;49.556;10.956;2023-11-21T06:35:51;7.00;99.90
20155;DHT22;10238;49.556;10.956;2023-11-21T06:38:39;7.00;99.90
20155;DHT22;10238;49.556;10.956;2023-11-21T06:41:26;7.10;99.90
20155;DHT22;10238;49.556;10.956;2023-11-21T06:44:14;7.10;99.90
20155;DHT22;10238;49.556;10.956;2023-11-21T06:47:01;7.10;99.90
20155;DHT22;10238;49.556;10.956;2023-11-21T06:49:49;7.10;99.90
20155;DHT22;10238;49.556;10.956;2023-11-21T06:52:39;7.10;99.90
20155;DHT22;10238;49.556;10.956;2023-11-21T06:55:27;7.10;99.90
20155;DHT22;10238;49.556;10.956;2023-11-21T06:58:15;7.10;99.90
20155;DHT22;10238;49.556;10.956;2023-11-21T07:01:02;7.10;99.90
20155;DHT22;10238;49.556;10.956;2023-11-21T07:03:52;7.20;99.90
20155;DHT22;10238;49.556;10.956;2023-11-21T07:06:39;7.20;99.90
20155;DHT22;10238;49.556;10.956;2023-11-21T07:09:29;7.20;99.90
20155;DHT22;10238;49.556;10.956;2023-11-21T07:12:17;7.20;99.90
20155;DHT22;10238;49.556;10.956;2023-11-21T07:15:06;7.20;99.90
20155;DHT22;10238;49.556;10.956;2023-11-21T07:17:55;7.30;99.90
20155;DHT22;10238;49.556;10.956;2023-11-21T07:20:43;7.30;99.90
20155;DHT22;10238;49.556;10.956;2023-11-21T07:23:31;7.30;99.90
20155;DHT22;10238;49.556;10.956;2023-11-21T07:26:20;7.30;99.90
20155;DHT22;10238;49.556;10.956;2023-11-21T07:29:08;7.30;99.90
20155;DHT22;10238;49.556;10.956;2023-11-21T07:31:57;7.40;99.90
20155;DHT22;10238;49.556;10.956;2023-11-21T07:34:46;7.40;99.90
20155;DHT22;10238;49.556;10.956;2023-11-21T07:37:34;7.50;99.90
20155;DHT22;10238;49.556;10.956;2023-11-21T07:40:22;7.50;99.90
20155;DHT22;10238;49.556;10.956;2023-11-21T07:43:11;7.50;99.90
20155;DHT22;10238;49.556;10.956;2023-11-21T07:45:58;7.50;99.90
20155;DHT22;10238;49.556;10.956;2023-11-21T07:48:47;7.60;99.90
20155;DHT22;10238;49.556;10.956;2023-11-21T07:51:35;7.60;99.90
20155;DHT22;10238;49.556;10.956;2023-11-21T07:54:22;7.60;99.90
20155;DHT22;10238;49.556;10.956;2023-11-21T07:57:10;7.60;99.90
20155;DHT22;10238;49.556;10.956;2023-11-21T08:00:00;7.60;99.90
20155;DHT22;10238;49.556;10.956;2023-11-21T08:02:49;7.70;99.90
20155;DHT22;10238;49.556;10.956;2023-11-21T08:05:37;7.70;99.90
20155;DHT22;10238;49.556;10.956;2023-11-21T08:08:25;7.70;99.90
20155;DHT22;10238;49.556;10.956;2023-11-21T08:11:13;7.70;99.90
20155;DHT22;10238;49.556;10.956;2023-11-21T08:14:01;7.80;99.90
20155;DHT22;10238;49.556;10.956;2023-11-21T08:16:50;7.80;99.90
20155;DHT22;10238;49.556;10.956;2023-11-21T08:19:38;7.90;99.90
20155;DHT22;10238;49.556;10.956;2023-11-21T08:22:25;7.90;99.90
20155;DHT22;10238;49.556;10.956;2023-11-21T08:25:13;7.90;99.90
20155;DHT22;10238;49.556;10.956;2023-11-21T08:28:01;7.90;99.90
20155;DHT22;10238;49.556;10.956;2023-11-21T08:30:50;7.90;99.90
20155;DHT22;10238;49.556;10.956;2023-11-21T08:33:39;8.00;99.90
20155;DHT22;10238;49.556;10.956;2023-11-21T08:36:27;8.00;99.90
20155;DHT22;10238;49.556;10.956;2023-11-21T08:39:15;8.10;99.90
20155;DHT22;10238;49.556;10.956;2023-11-21T08:42:06;8.20;99.90
20155;DHT22;10238;49.556;10.956;2023-11-21T08:44:54;8.20;99.90
20155;DHT22;10238;49.556;10.956;2023-11-21T08:47:44;8.20;99.90
20155;DHT22;10238;49.556;10.956;2023-11-21T08:50:34;8.30;99.90
20155;DHT22;10238;49.556;10.956;2023-11-21T08:53:22;8.30;99.90
20155;DHT22;10238;49.556;10.956;2023-11-21T08:56:12;8.40;99.90
20155;DHT22;10238;49.556;10.956;2023-11-21T08:59:01;8.40;99.90
20155;DHT22;10238;49.556;10.956;2023-11-21T09:01:49;8.50;99.90
20155;DHT22;10238;49.556;10.956;2023-11-21T09:04:37;8.50;99.90
20155;DHT22;10238;49.556;10.956;2023-11-21T09:07:29;8.60;99.90
20155;DHT22;10238;49.556;10.956;2023-11-21T09:10:17;8.60;99.90
20155;DHT22;10238;49.556;10.956;2023-11-21T09:13:06;8.70;99.90
20155;DHT22;10238;49.556;10.956;2023-11-21T09:15:55;8.70;99.90
20155;DHT22;10238;49.556;10.956;2023-11-21T09:18:42;8.90;99.90
20155;DHT22;10238;49.556;10.956;2023-11-21T09:21:31;9.00;99.90
20155;DHT22;10238;49.556;10.956;2023-11-21T09:24:22;9.10;99.90
20155;DHT22;10238;49.556;10.956;2023-11-21T09:27:15;9.20;99.90
20155;DHT22;10238;49.556;10.956;2023-11-21T09:30:04;9.20;99.90
20155;DHT22;10238;49.556;10.956;2023-11-21T09:32:55;9.20;99.90
20155;DHT22;10238;49.556;10.956;2023-11-21T09:35:44;9.20;99.90
20155;DHT22;10238;49.556;10.956;2023-11-21T09:38:31;9.20;99.90
20155;DHT22;10238;49.556;10.956;2023-11-21T09:41:23;9.30;99.90
20155;DHT22;10238;49.556;10.956;2023-11-21T09:44:26;9.30;99.90
20155;DHT22;10238;49.556;10.956;2023-11-21T09:47:21;9.40;99.90
20155;DHT22;10238;49.556;10.956;2023-11-21T09:50:10;9.50;99.90
20155;DHT22;10238;49.556;10.956;2023-11-21T09:53:11;9.50;99.90
20155;DHT22;10238;49.556;10.956;2023-11-21T09:56:05;9.50;99.90
20155;DHT22;10238;49.556;10.956;2023-11-21T09:58:56;9.60;99.90
20155;DHT22;10238;49.556;10.956;2023-11-21T10:01:50;9.70;99.90
20155;DHT22;10238;49.556;10.956;2023-11-21T10:04:38;9.70;99.90
20155;DHT22;10238;49.556;10.956;2023-11-21T10:07:27;9.70;99.90
20155;DHT22;10238;49.556;10.956;2023-11-21T10:10:19;9.80;99.90
20155;DHT22;10238;49.556;10.956;2023-11-21T10:13:11;9.90;99.90
20155;DHT22;10238;49.556;10.956;2023-11-21T10:16:06;9.90;99.90
20155;DHT22;10238;49.556;10.956;2023-11-21T10:18:58;10.00;99.90
20155;DHT22;10238;49.556;10.956;2023-11-21T10:21:57;10.10;99.90
20155;DHT22;10238;49.556;10.956;2023-11-21T10:24:46;10.20;99.90
20155;DHT22;10238;49.556;10.956;2023-11-21T10:27:39;10.20;99.90
20155;DHT22;10238;49.556;10.956;2023-11-21T10:30:31;10.20;99.90
20155;DHT22;10238;49.556;10.956;2023-11-21T10:33:28;10.20;99.90
20155;DHT22;10238;49.556;10.956;2023-11-21T10:36:25;10.30;99.90
20155;DHT22;10238;49.556;10.956;2023-11-21T10:39:16;10.30;99.90
20155;DHT22;10238;49.556;10.956;2023-11-21T10:42:08;10.40;99.90
20155;DHT22;10238;49.556;10.956;2023-11-21T10:44:56;10.30;99.90
20155;DHT22;10238;49.556;10.956;2023-11-21T10:47:44;10.30;99.90
20155;DHT22;10238;49.556;10.956;2023-11-21T10:50:54;10.30;99.90
20155;DHT22;10238;49.556;10.956;2023-11-21T10:53:43;10.30;99.90
20155;DHT22;10238;49.556;10.956;2023-11-21T10:56:57;10.20;99.90
20155;DHT22;10238;49.556;10.956;2023-11-21T10:59:47;10.30;99.90
20155;DHT22;10238;49.556;10.956;2023-11-21T11:02:36;10.30;99.90
20155;DHT22;10238;49.556;10.956;2023-11-21T11:05:26;10.40;99.90
20155;DHT22;10238;49.556;10.956;2023-11-21T11:08:19;10.40;99.90
20155;DHT22;10238;49.556;10.956;2023-11-21T11:11:14;10.40;99.90
20155;DHT22;10238;49.556;10.956;2023-11-21T11:14:01;10.40;99.90
20155;DHT22;10238;49.556;10.956;2023-11-21T11:16:49;10.40;99.90
20155;DHT22;10238;49.556;10.956;2023-11-21T11:19:37;10.50;99.90
20155;DHT22;10238;49.556;10.956;2023-11-21T11:22:36;10.50;99.90
20155;DHT22;10238;49.556;10.956;2023-11-21T11:25:38;10.50;99.90
20155;DHT22;10238;49.556;10.956;2023-11-21T11:28:47;10.60;99.90
20155;DHT22;10238;49.556;10.956;2023-11-21T11:31:48;10.70;99.90
20155;DHT22;10238;49.556;10.956;2023-11-21T11:34:47;10.80;99.90
20155;DHT22;10238;49.556;10.956;2023-11-21T11:37:41;10.90;99.90
20155;DHT22;10238;49.556;10.956;2023-11-21T11:40:40;10.90;99.90
20155;DHT22;10238;49.556;10.956;2023-11-21T11:43:28;10.90;99.90
20155;DHT22;10238;49.556;10.956;2023-11-21T11:46:18;10.90;99.90
20155;DHT22;10238;49.556;10.956;2023-11-21T11:49:07;10.90;99.90
20155;DHT22;10238;49.556;10.956;2023-11-21T11:52:32;10.80;99.90
20155;DHT22;10238;49.556;10.956;2023-11-21T11:55:22;10.80;99.90
20155;DHT22;10238;49.556;10.956;2023-11-21T11:58:12;10.80;99.90
20155;DHT22;10238;49.556;10.956;2023-11-21T12:01:06;10.90;99.90
20155;DHT22;10238;49.556;10.956;2023-11-21T12:04:24;10.90;99.90
20155;DHT22;10238;49.556;10.956;2023-11-21T12:07:18;10.90;99.90
20155;DHT22;10238;49.556;10.956;2023-11-21T12:10:11;11.00;99.90
20155;DHT22;10238;49.556;10.956;2023-11-21T12:13:02;11.00;99.90
20155;DHT22;10238;49.556;10.956;2023-11-21T12:15:55;11.00;99.90
20155;DHT22;10238;49.556;10.956;2023-11-21T12:18:42;11.00;99.90
20155;DHT22;10238;49.556;10.956;2023-11-21T12:21:31;11.00;99.90
20155;DHT22;10238;49.556;10.956;2023-11-21T12:24:20;11.10;99.90
20155;DHT22;10238;49.556;10.956;2023-11-21T12:27:09;11.10;99.90
20155;DHT22;10238;49.556;10.956;2023-11-21T12:29:57;11.10;99.90
20155;DHT22;10238;49.556;10.956;2023-11-21T12:32:49;11.10;99.90
20155;DHT22;10238;49.556;10.956;2023-11-21T12:35:38;11.10;99.90
20155;DHT22;10238;49.556;10.956;2023-11-21T12:38:33;11.10;99.90
20155;DHT22;10238;49.556;10.956;2023-11-21T12:41:22;11.10;99.90
20155;DHT22;10238;49.556;10.956;2023-11-21T12:44:12;11.10;99.90
20155;DHT22;10238;49.556;10.956;2023-11-21T12:47:01;11.20;99.90
20155;DHT22;10238;49.556;10.956;2023-11-21T12:49:51;11.20;99.90
20155;DHT22;10238;49.556;10.956;2023-11-21T12:52:40;11.30;99.90
20155;DHT22;10238;49.556;10.956;2023-11-21T12:55:31;11.30;99.90
20155;DHT22;10238;49.556;10.956;2023-11-21T12:58:20;11.30;99.90
20155;DHT22;10238;49.556;10.956;2023-11-21T13:01:12;11.20;99.90
20155;DHT22;10238;49.556;10.956;2023-11-21T13:04:07;11.20;99.90
20155;DHT22;10238;49.556;10.956;2023-11-21T13:07:04;11.20;99.90
20155;DHT22;10238;49.556;10.956;2023-11-21T13:09:59;11.20;99.90
20155;DHT22;10238;49.556;10.956;2023-11-21T13:12:53;11.10;99.90
20155;DHT22;10238;49.556;10.956;2023-11-21T13:15:48;11.00;99.90
20155;DHT22;10238;49.556;10.956;2023-11-21T13:18:37;10.90;99.90
20155;DHT22;10238;49.556;10.956;2023-11-21T13:21:26;10.80;99.90
20155;DHT22;10238;49.556;10.956;2023-11-21T13:24:15;10.80;99.90
20155;DHT22;10238;49.556;10.956;2023-11-21T13:27:04;10.90;99.90
20155;DHT22;10238;49.556;10.956;2023-11-21T13:29:53;11.00;99.90
20155;DHT22;10238;49.556;10.956;2023-11-21T13:32:41;11.10;99.90
20155;DHT22;10238;49.556;10.956;2023-11-21T13:35:29;11.20;99.90
20155;DHT22;10238;49.556;10.956;2023-11-21T13:38:19;11.20;99.90
20155;DHT22;10238;49.556;10.956;2023-11-21T13:41:10;11.30;99.90
20155;DHT22;10238;49.556;10.956;2023-11-21T13:44:00;11.40;99.90
20155;DHT22;10238;49.556;10.956;2023-11-21T13:47:02;11.60;99.90
20155;DHT22;10238;49.556;10.956;2023-11-21T13:49:52;11.80;99.90
20155;DHT22;10238;49.556;10.956;2023-11-21T13:52:40;11.90;99.90
20155;DHT22;10238;49.556;10.956;2023-11-21T13:55:27;11.90;99.90
20155;DHT22;10238;49.556;10.956;2023-11-21T13:58:17;11.90;99.90
20155;DHT22;10238;49.556;10.956;2023-11-21T14:01:08;11.70;99.90
20155;DHT22;10238;49.556;10.956;2023-11-21T14:04:08;11.60;99.90
20155;DHT22;10238;49.556;10.956;2023-11-21T14:07:05;11.60;99.90
20155;DHT22;10238;49.556;10.956;2023-11-21T14:10:09;11.40;99.90
20155;DHT22;10238;49.556;10.956;2023-11-21T14:13:00;11.30;99.90
20155;DHT22;10238;49.556;10.956;2023-11-21T14:15:49;11.20;99.90
20155;DHT22;10238;49.556;10.956;2023-11-21T14:18:45;11.20;99.90
20155;DHT22;10238;49.556;10.956;2023-11-21T14:21:42;11.10;99.90
20155;DHT22;10238;49.556;10.956;2023-11-21T14:24:31;11.10;99.90
20155;DHT22;10238;49.556;10.956;2023-11-21T14:27:19;11.00;99.90
20155;DHT22;10238;49.556;10.956;2023-11-21T14:30:08;11.00;99.90
20155;DHT22;10238;49.556;10.956;2023-11-21T14:33:00;11.00;99.90
20155;DHT22;10238;49.556;10.956;2023-11-21T14:35:48;10.80;99.90
20155;DHT22;10238;49.556;10.956;2023-11-21T14:38:36;10.80;99.90
20155;DHT22;10238;49.556;10.956;2023-11-21T14:41:25;10.70;99.90
20155;DHT22;10238;49.556;10.956;2023-11-21T14:44:14;10.60;99.90
20155;DHT22;10238;49.556;10.956;2023-11-21T14:47:01;10.50;99.90
20155;DHT22;10238;49.556;10.956;2023-11-21T14:49:55;10.50;99.90
20155;DHT22;10238;49.556;10.956;2023-11-21T14:52:46;10.40;99.90
20155;DHT22;10238;49.556;10.956;2023-11-21T14:55:42;10.40;99.90
20155;DHT22;10238;49.556;10.956;2023-11-21T14:58:43;10.30;99.90
20155;DHT22;10238;49.556;10.956;2023-11-21T15:01:31;10.20;99.90
20155;DHT22;10238;49.556;10.956;2023-11-21T15:04:30;10.20;99.90
20155;DHT22;10238;49.556;10.956;2023-11-21T15:07:23;10.00;99.90
20155;DHT22;10238;49.556;10.956;2023-11-21T15:10:13;10.00;99.90
20155;DHT22;10238;49.556;10.956;2023-11-21T15:13:02;9.90;99.90
20155;DHT22;10238;49.556;10.956;2023-11-21T15:15:49;9.80;99.90
20155;DHT22;10238;49.556;10.956;2023-11-21T15:18:38;9.70;99.90
20155;DHT22;10238;49.556;10.956;2023-11-21T15:21:25;9.60;99.90
20155;DHT22;10238;49.556;10.956;2023-11-21T15:24:15;9.60;99.90
20155;DHT22;10238;49.556;10.956;2023-11-21T15:27:03;9.50;99.90
20155;DHT22;10238;49.556;10.956;2023-11-21T15:29:51;9.40;99.90
20155;DHT22;10238;49.556;10.956;2023-11-21T15:32:40;9.40;99.90
20155;DHT22;10238;49.556;10.956;2023-11-21T15:35:27;9.30;99.90
20155;DHT22;10238;49.556;10.956;2023-11-21T15:38:15;9.20;99.90
20155;DHT22;10238;49.556;10.956;2023-11-21T15:41:04;9.10;99.90
20155;DHT22;10238;49.556;10.956;2023-11-21T15:43:54;9.00;99.90
20155;DHT22;10238;49.556;10.956;2023-11-21T15:46:42;9.00;99.90
20155;DHT22;10238;49.556;10.956;2023-11-21T15:49:31;9.00;99.90
20155;DHT22;10238;49.556;10.956;2023-11-21T15:52:22;8.90;99.90
20155;DHT22;10238;49.556;10.956;2023-11-21T15:55:10;8.90;99.90
20155;DHT22;10238;49.556;10.956;2023-11-21T15:58:00;8.90;99.90
20155;DHT22;10238;49.556;10.956;2023-11-21T16:00:50;8.90;99.90
20155;DHT22;10238;49.556;10.956;2023-11-21T16:03:39;8.90;99.90
20155;DHT22;10238;49.556;10.956;2023-11-21T16:06:27;8.80;99.90
20155;DHT22;10238;49.556;10.956;2023-11-21T16:09:17;8.80;99.90
20155;DHT22;10238;49.556;10.956;2023-11-21T16:12:10;8.80;99.90
20155;DHT22;10238;49.556;10.956;2023-11-21T16:15:00;8.80;99.90
20155;DHT22;10238;49.556;10.956;2023-11-21T16:17:54;8.80;99.90
20155;DHT22;10238;49.556;10.956;2023-11-21T16:20:41;8.80;99.90
20155;DHT22;10238;49.556;10.956;2023-11-21T16:23:29;8.70;99.90
20155;DHT22;10238;49.556;10.956;2023-11-21T16:26:17;8.70;99.90
20155;DHT22;10238;49.556;10.956;2023-11-21T16:29:05;8.70;99.90
20155;DHT22;10238;49.556;10.956;2023-11-21T16:31:54;8.70;99.90
20155;DHT22;10238;49.556;10.956;2023-11-21T16:34:42;8.70;99.90
20155;DHT22;10238;49.556;10.956;2023-11-21T16:37:31;8.60;99.90
20155;DHT22;10238;49.556;10.956;2023-11-21T16:40:19;8.60;99.90
20155;DHT22;10238;49.556;10.956;2023-11-21T16:43:08;8.60;99.90
20155;DHT22;10238;49.556;10.956;2023-11-21T16:45:57;8.60;99.90
20155;DHT22;10238;49.556;10.956;2023-11-21T16:48:45;8.60;99.90
20155;DHT22;10238;49.556;10.956;2023-11-21T16:51:33;8.60;99.90
20155;DHT22;10238;49.556;10.956;2023-11-21T16:54:20;8.60;99.90
20155;DHT22;10238;49.556;10.956;2023-11-21T16:57:08;8.60;99.90
20155;DHT22;10238;49.556;10.956;2023-11-21T16:59:57;8.60;99.90
20155;DHT22;10238;49.556;10.956;2023-11-21T17:02:44;8.60;99.90
20155;DHT22;10238;49.556;10.956;2023-11-21T17:05:33;8.50;99.90
20155;DHT22;10238;49.556;10.956;2023-11-21T17:08:21;8.50;99.90
20155;DHT22;10238;49.556;10.956;2023-11-21T17:11:10;8.50;99.90
20155;DHT22;10238;49.556;10.956;2023-11-21T17:14:00;8.50;99.90
20155;DHT22;10238;49.556;10.956;2023-11-21T17:16:48;8.50;99.90
20155;DHT22;10238;49.556;10.956;2023-11-21T17:19:37;8.50;99.90
20155;DHT22;10238;49.556;10.956;2023-11-21T17:22:30;8.50;99.90
20155;DHT22;10238;49.556;10.956;2023-11-21T17:25:18;8.40;99.90
20155;DHT22;10238;49.556;10.956;2023-11-21T17:28:06;8.40;99.90
20155;DHT22;10238;49.556;10.956;2023-11-21T17:30:54;8.40;99.90
20155;DHT22;10238;49.556;10.956;2023-11-21T17:33:42;8.40;99.90
20155;DHT22;10238;49.556;10.956;2023-11-21T17:36:30;8.40;99.90
20155;DHT22;10238;49.556;10.956;2023-11-21T17:39:18;8.40;99.90
20155;DHT22;10238;49.556;10.956;2023-11-21T17:42:06;8.40;99.90
20155;DHT22;10238;49.556;10.956;2023-11-21T17:44:54;8.40;99.90
20155;DHT22;10238;49.556;10.956;2023-11-21T17:47:42;8.40;99.90
20155;DHT22;10238;49.556;10.956;2023-11-21T17:50:33;8.30;99.90